Terminal Aerodrome Forecast
Issued by NWS Sterling, VA

Current Version | Previous Version | Graphics & Text | Print | Product List | Glossary On
Versions: 1 2 3 4 5 6 7 8 9 10 11 12 13 14 15 16 17 18 19 20 21 22 23
000
FTUS41 KLWX 280409 AAC
TAFMRB
TAF AMD
KMRB 280409Z 2804/2824 29008KT P6SM -SHRA OVC006
      TEMPO 2804/2805 2SM SHRA
     FM280600 28006KT 3SM BR BKN040
     FM280900 28006KT P6SM SCT250
     FM281500 25009KT P6SM BKN045
     FM281700 26013G27KT P6SM BKN050
     FM282300 28014KT P6SM SCT060=

USA.gov is the U.S. government's official web portal to all federal, state and local government web resources and services.